Time;durP1;ratioP1;P1;durP2;ratioP2;P2;SDS_P1;SDS_P2;PMS_P1;PMS_P2;Temp;Humidity;BMP_temperature;BMP_pressure;BME280_temperature;BME280_humidity;BME280_pressure;Samples;Min_cycle;Max_cycle;Signal;HPM_P1;HPM_P2
2022/05/14 00:02:03;;;;;;;2.37;2.00;;;25.50;39.80;;;;;;5056607;28;20424;-78
2022/05/14 00:04:31;;;;;;;4.00;2.03;;;25.40;39.80;;;;;;5056646;28;20492;-78
2022/05/14 00:06:59;;;;;;;3.90;2.00;;;25.40;39.80;;;;;;5057207;28;20440;-78
2022/05/14 00:09:27;;;;;;;5.63;2.23;;;25.40;39.90;;;;;;5056601;28;20541;-78
2022/05/14 00:14:43;;;;;;;3.30;2.20;;;25.40;39.90;;;;;;5057431;28;20458;-78
2022/05/14 00:17:11;;;;;;;6.00;2.10;;;25.40;39.90;;;;;;5056760;28;20517;-78
2022/05/14 00:19:39;;;;;;;2.60;2.27;;;25.30;39.90;;;;;;5056804;28;20473;-78
2022/05/14 00:22:07;;;;;;;2.70;2.00;;;25.40;40.00;;;;;;5056712;28;20444;-78
2022/05/14 00:24:35;;;;;;;2.30;1.80;;;25.40;40.00;;;;;;5056842;28;20425;-78
2022/05/14 00:27:04;;;;;;;1.83;1.70;;;25.40;40.00;;;;;;5057037;28;20522;-78
2022/05/14 00:29:32;;;;;;;1.90;1.80;;;25.30;40.00;;;;;;5055493;28;20484;-78
2022/05/14 00:32:01;;;;;;;3.97;2.37;;;25.30;39.90;;;;;;5057047;28;20440;-78
2022/05/14 00:34:29;;;;;;;2.23;2.03;;;25.40;40.10;;;;;;5056164;28;20433;-78
2022/05/14 00:37:00;;;;;;;2.20;2.00;;;25.30;39.90;;;;;;5056562;28;20421;-78
2022/05/14 00:39:28;;;;;;;2.00;1.80;;;25.30;40.00;;;;;;5056932;28;20460;-78
2022/05/14 00:41:56;;;;;;;1.87;1.77;;;25.30;40.10;;;;;;5056391;28;20479;-78
2022/05/14 00:44:24;;;;;;;3.87;2.03;;;25.30;40.00;;;;;;5056538;28;20525;-78
2022/05/14 00:46:54;;;;;;;3.17;2.00;;;25.30;40.00;;;;;;5055769;28;20465;-78
2022/05/14 00:49:24;;;;;;;2.03;1.93;;;25.30;40.60;;;;;;5056398;28;20489;-78
2022/05/14 00:51:52;;;;;;;2.17;1.97;;;25.30;40.10;;;;;;5060404;28;20455;-78
2022/05/14 00:54:23;;;;;;;1.93;1.83;;;25.30;40.10;;;;;;5060322;28;20469;-78
2022/05/14 00:56:53;;;;;;;2.30;2.10;;;25.20;40.10;;;;;;5060571;28;20378;-78
2022/05/14 00:59:23;;;;;;;3.30;2.07;;;25.20;40.20;;;;;;5060512;28;20493;-78
2022/05/14 01:01:50;;;;;;;2.90;1.60;;;25.20;40.10;;;;;;5060124;28;20537;-78
2022/05/14 01:04:19;;;;;;;1.67;1.57;;;25.20;40.20;;;;;;5060432;28;20462;-78
2022/05/14 01:06:50;;;;;;;3.33;1.80;;;25.20;40.20;;;;;;5060661;28;20461;-78
2022/05/14 01:09:18;;;;;;;2.80;1.90;;;25.20;40.30;;;;;;5059954;28;20474;-78
2022/05/14 01:11:46;;;;;;;4.10;2.00;;;25.20;40.30;;;;;;5060496;28;20964;-78
2022/05/14 01:14:14;;;;;;;5.07;2.00;;;25.20;40.40;;;;;;5059286;28;20421;-78
2022/05/14 01:16:43;;;;;;;2.00;1.90;;;25.20;40.40;;;;;;5059450;28;20428;-78
2022/05/14 01:19:11;;;;;;;1.87;1.77;;;25.10;40.20;;;;;;5058488;28;20466;-77
2022/05/14 01:21:41;;;;;;;3.23;2.10;;;25.10;40.40;;;;;;5060080;28;20529;-78
2022/05/14 01:27:00;;;;;;;2.33;1.80;;;25.10;40.40;;;;;;5060300;28;20500;-78
2022/05/14 01:29:29;;;;;;;3.33;2.10;;;25.10;40.50;;;;;;5061869;28;20475;-78
2022/05/14 01:31:56;;;;;;;2.60;1.87;;;25.10;40.40;;;;;;5060628;28;20493;-78
2022/05/14 01:34:25;;;;;;;2.90;2.23;;;25.00;40.50;;;;;;5059116;28;20508;-78
2022/05/14 01:36:55;;;;;;;1.90;1.80;;;25.00;40.60;;;;;;5058505;28;20452;-78
2022/05/14 01:39:23;;;;;;;2.73;2.10;;;25.00;40.50;;;;;;5059710;28;20462;-78
2022/05/14 01:41:51;;;;;;;2.70;1.83;;;25.00;40.50;;;;;;5058615;28;20535;-79
2022/05/14 01:44:20;;;;;;;2.37;1.60;;;25.00;40.60;;;;;;5060106;28;20429;-79
2022/05/14 01:46:48;;;;;;;1.70;1.57;;;25.00;40.60;;;;;;5060253;28;20496;-79
2022/05/14 01:49:16;;;;;;;1.93;1.77;;;25.00;40.60;;;;;;5059330;28;20497;-78
2022/05/14 01:51:44;;;;;;;2.07;1.83;;;25.00;40.70;;;;;;5060936;28;20457;-79
2022/05/14 01:54:12;;;;;;;2.60;2.00;;;25.00;40.60;;;;;;5059983;28;20504;-78
2022/05/14 01:56:40;;;;;;;1.73;1.60;;;25.00;40.70;;;;;;5061375;28;20530;-78
2022/05/14 01:59:10;;;;;;;1.97;1.77;;;25.00;40.50;;;;;;5061174;28;20502;-78
2022/05/14 02:01:39;;;;;;;2.20;1.63;;;25.00;40.60;;;;;;5061256;28;20538;-79
2022/05/14 02:04:09;;;;;;;1.97;1.87;;;25.00;40.60;;;;;;5060402;28;20466;-79
2022/05/14 02:06:37;;;;;;;2.73;2.07;;;25.00;40.50;;;;;;5061978;28;20429;-78
2022/05/14 02:09:06;;;;;;;1.70;1.57;;;25.00;40.60;;;;;;5059778;28;20574;-77
2022/05/14 02:11:34;;;;;;;1.93;1.83;;;25.00;40.60;;;;;;5040407;28;20438;-78
2022/05/14 02:14:02;;;;;;;3.23;2.20;;;25.00;40.60;;;;;;5040176;28;20452;-79
2022/05/14 02:16:30;;;;;;;2.00;1.90;;;24.90;40.50;;;;;;5040582;28;20403;-78
2022/05/14 02:19:00;;;;;;;1.90;1.73;;;25.00;40.60;;;;;;5040219;28;20464;-79
2022/05/14 02:21:28;;;;;;;1.93;1.83;;;24.90;40.60;;;;;;5040646;28;20418;-78
2022/05/14 02:23:56;;;;;;;2.40;1.90;;;24.90;40.60;;;;;;5042061;28;20444;-79
2022/05/14 02:26:25;;;;;;;1.93;1.83;;;24.90;40.60;;;;;;5055387;28;20429;-78
2022/05/14 02:28:53;;;;;;;2.73;1.97;;;24.90;40.70;;;;;;5061693;28;20455;-79
2022/05/14 02:31:21;;;;;;;2.13;1.80;;;25.00;40.80;;;;;;5060562;28;20465;-79
2022/05/14 02:33:49;;;;;;;4.07;2.03;;;24.90;40.60;;;;;;5061605;28;20451;-79
2022/05/14 02:36:19;;;;;;;3.50;1.83;;;24.90;40.60;;;;;;5061099;28;20442;-78
2022/05/14 02:38:47;;;;;;;3.30;2.00;;;24.90;40.70;;;;;;5059714;28;20477;-78
2022/05/14 02:41:15;;;;;;;1.70;1.60;;;24.90;40.60;;;;;;5059645;28;20524;-78
2022/05/14 02:43:43;;;;;;;2.80;2.10;;;24.90;40.60;;;;;;5060357;28;20451;-78
2022/05/14 02:46:12;;;;;;;2.37;1.67;;;24.90;40.60;;;;;;5060830;28;20533;-78
2022/05/14 02:48:41;;;;;;;3.10;2.00;;;24.90;40.60;;;;;;5061322;28;20436;-79
2022/05/14 02:51:09;;;;;;;2.30;1.87;;;24.90;40.60;;;;;;5060223;28;20463;-79
2022/05/14 02:53:38;;;;;;;2.70;1.50;;;24.90;40.60;;;;;;5060591;28;20504;-78
2022/05/14 02:56:07;;;;;;;2.30;2.03;;;24.90;40.60;;;;;;5060463;28;20417;-78
2022/05/14 03:01:20;;;;;;;2.10;1.90;;;24.90;40.80;;;;;;5059170;28;20546;-78
2022/05/14 03:03:48;;;;;;;1.93;1.73;;;24.90;40.70;;;;;;5059115;28;20425;-78
2022/05/14 03:06:16;;;;;;;1.93;1.83;;;24.80;40.60;;;;;;5058802;28;20463;-78
2022/05/14 03:08:46;;;;;;;3.53;1.73;;;24.90;40.70;;;;;;5059387;28;20508;-78
2022/05/14 03:11:14;;;;;;;2.17;1.60;;;24.90;40.70;;;;;;5059198;28;20475;-78
2022/05/14 03:13:42;;;;;;;1.93;1.83;;;24.90;40.70;;;;;;5058618;28;20474;-78
2022/05/14 03:16:10;;;;;;;2.63;2.00;;;24.80;40.70;;;;;;5058441;28;20473;-78
2022/05/14 03:18:38;;;;;;;2.23;2.03;;;24.80;40.60;;;;;;5059717;28;20417;-78
2022/05/14 03:21:06;;;;;;;2.30;1.53;;;24.90;40.80;;;;;;5059192;28;20461;-78
2022/05/14 03:23:34;;;;;;;2.60;1.80;;;24.80;40.60;;;;;;5059995;28;20450;-79
2022/05/14 03:26:04;;;;;;;2.00;1.80;;;24.80;40.80;;;;;;5058640;28;20418;-79
2022/05/14 03:28:32;;;;;;;2.20;1.60;;;24.80;40.70;;;;;;5059795;28;20454;-78
2022/05/14 03:31:00;;;;;;;1.63;1.53;;;24.80;40.70;;;;;;5058031;28;20445;-78
2022/05/14 03:33:28;;;;;;;2.10;2.00;;;24.80;40.90;;;;;;5059594;28;20521;-78
2022/05/14 03:35:56;;;;;;;2.53;1.60;;;24.90;40.80;;;;;;5058956;28;20540;-78
2022/05/14 03:38:24;;;;;;;1.80;1.70;;;24.80;40.80;;;;;;5058555;28;20445;-79
2022/05/14 03:40:52;;;;;;;2.03;1.83;;;24.80;40.70;;;;;;5058777;28;20461;-78
2022/05/14 03:43:22;;;;;;;3.00;1.87;;;24.80;41.40;;;;;;5058218;28;20892;-78
2022/05/14 03:45:50;;;;;;;2.07;1.93;;;24.80;40.80;;;;;;5058122;28;20474;-78
2022/05/14 03:48:18;;;;;;;2.07;1.97;;;24.90;40.90;;;;;;5058550;28;20428;-78
2022/05/14 03:50:46;;;;;;;2.20;2.10;;;24.80;40.80;;;;;;5058110;28;20471;-79
2022/05/14 03:53:14;;;;;;;2.20;2.00;;;24.80;40.90;;;;;;5059083;28;20533;-78
2022/05/14 03:55:42;;;;;;;2.73;1.77;;;24.80;40.80;;;;;;5059207;28;20453;-78
2022/05/14 03:58:10;;;;;;;4.40;1.80;;;24.80;40.90;;;;;;5058949;28;20488;-79
2022/05/14 04:00:39;;;;;;;3.33;1.80;;;24.80;41.00;;;;;;5058831;28;20443;-79
2022/05/14 04:03:07;;;;;;;3.07;1.90;;;24.90;40.90;;;;;;5057036;28;20414;-78
2022/05/14 04:05:35;;;;;;;2.30;1.70;;;24.80;40.90;;;;;;5058654;28;20452;-79
2022/05/14 04:08:03;;;;;;;2.10;2.00;;;24.80;40.90;;;;;;5058962;28;20508;-79
2022/05/14 04:10:32;;;;;;;2.20;2.00;;;24.80;40.90;;;;;;5059411;28;20481;-79
2022/05/14 04:13:00;;;;;;;2.10;1.90;;;24.90;40.80;;;;;;5059402;28;20820;-79
2022/05/14 04:15:28;;;;;;;2.60;1.93;;;24.80;40.80;;;;;;5059131;28;20446;-79
2022/05/14 04:17:58;;;;;;;2.10;2.00;;;24.80;40.80;;;;;;5059181;28;20442;-79
2022/05/14 04:20:26;;;;;;;1.90;1.80;;;24.80;41.00;;;;;;5057537;28;20511;-78
2022/05/14 04:22:55;;;;;;;1.70;1.60;;;24.80;41.00;;;;;;5056308;28;20418;-79
2022/05/14 04:25:24;;;;;;;3.70;1.90;;;24.80;41.00;;;;;;5039359;28;20461;-79
2022/05/14 04:27:55;;;;;;;1.70;1.60;;;24.80;41.00;;;;;;5043359;28;20511;-79
2022/05/14 04:30:23;;;;;;;1.77;1.67;;;24.80;41.00;;;;;;5042797;28;20498;-79
2022/05/14 04:32:51;;;;;;;2.17;1.97;;;24.80;41.00;;;;;;5043185;28;20472;-79
2022/05/14 04:35:21;;;;;;;2.27;2.07;;;24.80;41.00;;;;;;5042655;28;20463;-79
2022/05/14 04:37:49;;;;;;;3.87;1.90;;;24.80;41.00;;;;;;5051911;28;20432;-78
2022/05/14 04:40:17;;;;;;;1.70;1.60;;;24.80;41.00;;;;;;5062897;28;20514;-78
2022/05/14 04:42:45;;;;;;;4.03;2.10;;;24.80;40.90;;;;;;5062766;28;20467;-78
2022/05/14 04:45:13;;;;;;;3.93;1.67;;;24.80;41.00;;;;;;5062834;28;20428;-79
2022/05/14 04:47:42;;;;;;;1.63;1.53;;;24.80;41.10;;;;;;5063422;28;20446;-78
2022/05/14 04:50:11;;;;;;;1.93;1.73;;;24.80;41.10;;;;;;5062470;28;20467;-79
2022/05/14 04:52:40;;;;;;;3.90;2.13;;;24.80;41.00;;;;;;5062841;28;20448;-79
2022/05/14 04:55:09;;;;;;;2.03;1.67;;;24.80;41.00;;;;;;5061361;28;20433;-78
2022/05/14 04:57:40;;;;;;;3.63;2.20;;;24.80;41.10;;;;;;5062019;28;20448;-79
2022/05/14 05:00:09;;;;;;;2.50;2.00;;;24.80;41.00;;;;;;5061554;28;20445;-79
2022/05/14 05:05:23;;;;;;;2.20;1.90;;;24.80;41.00;;;;;;5061181;28;20436;-78
2022/05/14 05:07:52;;;;;;;5.57;1.80;;;24.80;41.10;;;;;;5062064;28;20393;-79
2022/05/14 05:10:20;;;;;;;3.47;1.90;;;24.90;41.00;;;;;;5060695;28;20532;-78
2022/05/14 05:12:49;;;;;;;2.13;2.00;;;24.90;41.10;;;;;;5063053;28;20532;-79
2022/05/14 05:15:16;;;;;;;1.90;1.80;;;24.90;41.00;;;;;;5062560;28;20517;-78
2022/05/14 05:17:44;;;;;;;3.93;1.70;;;24.90;41.00;;;;;;5062495;28;20434;-79
2022/05/14 05:20:12;;;;;;;2.63;1.73;;;24.90;41.00;;;;;;5062858;28;20456;-79
2022/05/14 05:22:40;;;;;;;2.30;1.93;;;24.90;41.00;;;;;;5062700;28;20488;-79
2022/05/14 05:25:10;;;;;;;3.10;2.07;;;24.90;41.00;;;;;;5062937;28;20444;-79
2022/05/14 05:27:38;;;;;;;4.10;2.03;;;24.90;41.00;;;;;;5060880;28;20512;-78
2022/05/14 05:30:08;;;;;;;6.03;1.90;;;24.90;41.00;;;;;;5056896;28;20512;-79
2022/05/14 05:32:36;;;;;;;1.97;1.87;;;24.90;41.00;;;;;;5063266;28;20560;-78
2022/05/14 05:35:04;;;;;;;2.50;1.83;;;24.90;41.00;;;;;;5062685;28;20479;-79
2022/05/14 05:37:32;;;;;;;4.43;2.03;;;24.90;41.00;;;;;;5061497;28;20449;-79
2022/05/14 05:40:00;;;;;;;2.23;1.80;;;24.90;40.90;;;;;;5062022;28;20437;-78
2022/05/14 05:42:30;;;;;;;3.23;1.97;;;25.00;41.00;;;;;;5062500;28;20516;-78
2022/05/14 05:44:58;;;;;;;1.83;1.73;;;25.00;41.00;;;;;;5061172;28;20446;-79
2022/05/14 05:47:26;;;;;;;2.00;1.67;;;25.00;41.00;;;;;;5063490;28;20446;-78
2022/05/14 05:49:54;;;;;;;2.43;2.23;;;25.00;40.90;;;;;;5062871;28;20684;-78
2022/05/14 05:52:26;;;;;;;3.30;2.20;;;25.00;40.80;;;;;;5061348;28;20482;-78
2022/05/14 05:57:42;;;;;;;2.50;1.67;;;25.00;40.80;;;;;;5061897;28;20427;-79
2022/05/14 06:00:12;;;;;;;2.90;1.77;;;25.10;40.80;;;;;;5060931;28;20468;-78
2022/05/14 06:02:40;;;;;;;2.03;1.83;;;25.10;40.70;;;;;;5062267;28;20436;-78
2022/05/14 06:05:09;;;;;;;2.30;2.10;;;25.10;40.70;;;;;;5061416;28;20833;-80
2022/05/14 06:07:39;;;;;;;1.97;1.80;;;25.20;40.60;;;;;;5062217;28;20526;-79
2022/05/14 06:10:10;;;;;;;2.00;1.87;;;25.20;40.60;;;;;;5062021;28;20554;-79
2022/05/14 06:12:39;;;;;;;3.23;1.80;;;25.30;40.40;;;;;;5062395;28;20463;-79
2022/05/14 06:15:10;;;;;;;2.10;1.90;;;25.20;40.40;;;;;;5061090;28;20521;-79
2022/05/14 06:17:39;;;;;;;2.60;1.90;;;25.30;40.40;;;;;;5059583;28;20450;-78
2022/05/14 06:20:09;;;;;;;2.20;2.00;;;25.30;40.40;;;;;;5060842;28;20471;-79
2022/05/14 06:22:37;;;;;;;3.97;2.23;;;25.30;40.40;;;;;;5060946;28;20424;-78
2022/05/14 06:25:06;;;;;;;2.80;1.83;;;25.30;40.50;;;;;;5061047;28;20473;-79
2022/05/14 06:27:34;;;;;;;5.27;2.10;;;25.30;40.40;;;;;;5061187;28;20447;-79
2022/05/14 06:30:02;;;;;;;3.73;2.53;;;25.30;40.30;;;;;;5061336;28;20536;-79
2022/05/14 06:32:31;;;;;;;2.20;1.67;;;25.40;40.40;;;;;;5061570;28;20486;-78
2022/05/14 06:35:00;;;;;;;1.93;1.80;;;25.40;40.30;;;;;;5060143;28;20429;-79
2022/05/14 06:37:28;;;;;;;2.27;1.80;;;25.50;40.30;;;;;;5061076;28;20471;-79
2022/05/14 06:39:56;;;;;;;2.63;2.10;;;25.50;40.30;;;;;;5060929;28;20440;-80
2022/05/14 06:42:24;;;;;;;2.60;1.90;;;25.50;40.20;;;;;;5060673;28;20469;-79
2022/05/14 06:44:53;;;;;;;2.20;1.90;;;25.50;40.20;;;;;;5060879;28;20443;-79
2022/05/14 06:47:22;;;;;;;1.90;1.80;;;25.60;40.20;;;;;;5060414;28;20450;-79
2022/05/14 06:49:51;;;;;;;2.07;1.87;;;25.70;40.00;;;;;;5059834;28;20444;-79
2022/05/14 06:52:19;;;;;;;2.30;2.10;;;25.70;40.00;;;;;;5059642;28;20539;-78
2022/05/14 06:54:47;;;;;;;3.63;1.90;;;25.80;39.80;;;;;;5060227;28;20470;-79
2022/05/14 06:57:16;;;;;;;2.97;2.10;;;25.80;39.80;;;;;;5060864;28;20485;-79
2022/05/14 06:59:44;;;;;;;1.90;1.80;;;25.80;39.80;;;;;;5061344;28;20475;-80
2022/05/14 07:02:12;;;;;;;2.40;2.20;;;25.90;39.90;;;;;;5061550;28;20481;-79
2022/05/14 07:07:27;;;;;;;2.10;1.80;;;25.90;39.60;;;;;;5060868;28;20461;-79
2022/05/14 07:09:55;;;;;;;1.90;1.80;;;25.90;39.60;;;;;;5044067;28;20471;-79
2022/05/14 07:12:24;;;;;;;2.27;1.97;;;25.90;39.60;;;;;;5055179;28;20480;-80
2022/05/14 07:14:52;;;;;;;2.97;2.00;;;26.00;39.60;;;;;;5062765;28;20424;-80
2022/05/14 07:17:20;;;;;;;4.70;2.10;;;26.10;39.50;;;;;;5062211;28;20464;-79
2022/05/14 07:19:49;;;;;;;4.53;2.60;;;26.10;39.60;;;;;;5067182;28;20446;-79
2022/05/14 07:22:17;;;;;;;4.93;2.10;;;26.20;39.60;;;;;;5067434;28;20409;-79
2022/05/14 07:24:47;;;;;;;8.17;2.30;;;26.20;39.80;;;;;;5065344;28;20447;-79
2022/05/14 07:27:15;;;;;;;6.83;2.77;;;26.20;39.90;;;;;;5059724;28;20429;-79
2022/05/14 07:29:45;;;;;;;4.10;2.23;;;26.30;39.80;;;;;;5047693;28;20453;-79
2022/05/14 07:32:15;;;;;;;5.07;2.60;;;26.30;39.70;;;;;;5046052;28;20470;-80
2022/05/14 07:34:44;;;;;;;5.30;2.40;;;26.30;39.60;;;;;;5045846;28;20409;-80
2022/05/14 07:37:13;;;;;;;3.03;2.17;;;26.40;39.80;;;;;;5044586;28;20444;-80
2022/05/14 07:39:43;;;;;;;4.27;2.20;;;26.60;39.70;;;;;;5045689;28;20438;-80
2022/05/14 07:42:14;;;;;;;5.10;2.23;;;26.60;39.60;;;;;;5046328;28;20418;-80
2022/05/14 07:44:44;;;;;;;4.87;2.10;;;26.60;39.60;;;;;;5064996;28;20424;-80
2022/05/14 07:47:13;;;;;;;5.33;2.50;;;26.70;39.60;;;;;;5047440;28;20458;-80
2022/05/14 07:49:42;;;;;;;3.47;2.30;;;26.70;39.60;;;;;;5042931;28;20470;-79
2022/05/14 07:52:10;;;;;;;4.10;2.30;;;26.70;39.50;;;;;;5042866;28;20480;-79
2022/05/14 07:54:38;;;;;;;3.20;2.33;;;26.80;39.60;;;;;;5042746;28;20431;-79
2022/05/14 07:57:07;;;;;;;4.90;2.33;;;26.90;39.50;;;;;;5042892;28;20451;-79
2022/05/14 07:59:37;;;;;;;2.37;2.17;;;27.00;39.30;;;;;;5052422;28;20453;-79
2022/05/14 08:02:06;;;;;;;3.43;2.03;;;27.00;39.10;;;;;;5062480;28;20420;-79
2022/05/14 08:04:34;;;;;;;5.77;2.20;;;27.10;39.00;;;;;;5063624;28;20453;-80
2022/05/14 08:07:03;;;;;;;2.33;2.00;;;27.10;38.80;;;;;;5062887;28;20437;-80
2022/05/14 08:09:31;;;;;;;2.80;2.20;;;27.20;38.70;;;;;;5063371;28;20469;-80
2022/05/14 08:12:00;;;;;;;4.70;2.30;;;27.30;38.70;;;;;;5062850;28;20421;-80
2022/05/14 08:14:29;;;;;;;8.93;2.10;;;27.30;38.50;;;;;;5060105;28;20453;-80
2022/05/14 08:16:59;;;;;;;9.60;2.10;;;27.40;38.30;;;;;;5063450;28;20451;-80
2022/05/14 08:19:27;;;;;;;1.80;1.70;;;27.50;38.30;;;;;;5062689;28;20461;-80
2022/05/14 08:24:40;;;;;;;3.00;2.07;;;27.60;38.10;;;;;;5064001;28;20438;-80
2022/05/14 08:27:09;;;;;;;4.83;2.43;;;27.70;38.00;;;;;;5062367;28;20410;-80
2022/05/14 08:29:41;;;;;;;6.40;2.20;;;27.70;37.80;;;;;;5066350;28;20449;-80
2022/05/14 08:32:11;;;;;;;3.63;2.17;;;27.80;38.40;;;;;;5067631;28;20473;-79
2022/05/14 08:34:39;;;;;;;3.30;1.73;;;27.90;37.70;;;;;;5086920;28;20448;-81
2022/05/14 08:37:08;;;;;;;8.13;2.53;;;27.90;37.60;;;;;;5086657;28;20887;-80
2022/05/14 08:39:37;;;;;;;2.53;2.00;;;28.00;38.10;;;;;;5087185;28;20440;-80
2022/05/14 08:42:06;;;;;;;3.77;2.20;;;28.10;37.50;;;;;;5089672;28;20420;-80
2022/05/14 08:44:35;;;;;;;3.60;2.43;;;28.20;37.30;;;;;;5086667;28;20433;-79
2022/05/14 08:47:05;;;;;;;5.93;2.30;;;28.20;37.00;;;;;;5082966;28;20460;-79
2022/05/14 08:49:36;;;;;;;3.27;1.67;;;28.30;36.80;;;;;;5073138;28;20486;-80
2022/05/14 08:52:07;;;;;;;5.63;2.20;;;28.40;36.90;;;;;;5057625;28;20496;-80
2022/05/14 08:54:35;;;;;;;3.83;2.17;;;28.40;36.60;;;;;;5050946;28;20451;-80
2022/05/14 08:57:06;;;;;;;4.93;2.33;;;28.50;36.70;;;;;;5050520;28;20478;-80
2022/05/14 08:59:55;;;;;;;3.80;2.30;;;28.50;36.40;;;;;;5051876;28;20471;-80
2022/05/14 09:02:25;;;;;;;3.03;2.60;;;28.50;36.40;;;;;;5050758;28;20439;-80
2022/05/14 09:04:59;;;;;;;3.23;1.87;;;28.40;36.60;;;;;;5051710;28;20447;-80
2022/05/14 09:07:27;;;;;;;2.00;1.90;;;28.60;36.80;;;;;;5070630;28;20469;-80
2022/05/14 09:09:57;;;;;;;4.63;2.10;;;28.70;36.60;;;;;;5070192;28;20451;-80
2022/05/14 09:12:27;;;;;;;3.57;2.10;;;28.70;36.30;;;;;;5072508;28;20447;-80
2022/05/14 09:14:57;;;;;;;3.70;1.90;;;28.90;36.60;;;;;;5073444;28;20442;-80
2022/05/14 09:17:28;;;;;;;5.53;2.40;;;28.90;36.00;;;;;;5072462;28;20438;-81
2022/05/14 09:19:59;;;;;;;2.63;2.27;;;28.90;35.80;;;;;;5072626;28;20466;-80
2022/05/14 09:22:38;;;;;;;3.53;2.00;;;29.00;35.90;;;;;;5069998;28;20447;-80
2022/05/14 09:25:21;;;;;;;6.57;2.40;;;29.10;35.90;;;;;;5072235;28;20445;-80
2022/05/14 09:27:52;;;;;;;2.13;1.90;;;29.00;35.70;;;;;;5072778;28;20442;-80
2022/05/14 09:30:26;;;;;;;2.50;1.80;;;29.10;35.90;;;;;;5071749;28;20433;-80
2022/05/14 09:32:54;;;;;;;4.63;1.90;;;29.20;35.80;;;;;;5071990;28;20446;-80
2022/05/14 09:35:24;;;;;;;2.90;2.10;;;29.30;35.90;;;;;;5072680;28;20446;-80
2022/05/14 09:37:56;;;;;;;1.83;1.53;;;29.40;35.70;;;;;;5069176;28;20469;-80
2022/05/14 09:40:25;;;;;;;2.60;2.00;;;29.40;35.50;;;;;;5065413;28;20478;-80
2022/05/14 09:42:54;;;;;;;5.70;2.20;;;29.30;35.20;;;;;;5073267;28;20446;-80
2022/05/14 09:45:29;;;;;;;2.87;2.10;;;29.40;35.50;;;;;;5073381;28;20510;-80
2022/05/14 09:47:57;;;;;;;3.50;2.20;;;29.60;35.40;;;;;;5073016;28;20434;-80
2022/05/14 09:50:34;;;;;;;5.90;2.53;;;29.60;35.30;;;;;;5073356;28;20461;-80
2022/05/14 09:53:04;;;;;;;4.10;2.20;;;29.60;35.00;;;;;;5074825;28;20519;-80
2022/05/14 09:55:50;;;;;;;3.00;2.10;;;29.60;35.10;;;;;;5071506;28;20450;-80
2022/05/14 09:58:20;;;;;;;2.20;2.00;;;29.70;35.10;;;;;;5066786;28;20476;-81
2022/05/14 10:00:59;;;;;;;3.90;1.77;;;29.70;35.10;;;;;;5052437;28;20498;-81
2022/05/14 10:03:38;;;;;;;3.80;2.30;;;29.70;34.90;;;;;;5052727;28;20470;-81
2022/05/14 10:06:15;;;;;;;4.13;2.17;;;29.70;35.20;;;;;;5053087;28;20455;-81
2022/05/14 10:09:00;;;;;;;5.07;2.23;;;29.70;35.40;;;;;;5052745;28;20502;-81
2022/05/14 10:11:31;;;;;;;3.27;2.00;;;29.70;35.50;;;;;;5054254;28;20488;-81
2022/05/14 10:14:11;;;;;;;4.30;2.13;;;29.90;35.70;;;;;;5050924;28;20458;-81
2022/05/14 10:16:40;;;;;;;2.07;1.97;;;29.80;35.30;;;;;;5070110;28;20454;-80
2022/05/14 10:19:15;;;;;;;7.67;2.57;;;30.00;35.90;;;;;;5070380;28;20446;-81
2022/05/14 10:21:50;;;;;;;4.60;2.37;;;29.90;35.00;;;;;;5072025;28;20442;-81
2022/05/14 10:27:20;;;;;;;4.53;2.60;;;30.20;35.20;;;;;;5071615;28;20451;-81
2022/05/14 10:29:54;;;;;;;3.70;2.53;;;30.20;34.60;;;;;;5075820;28;20509;-81
2022/05/14 10:32:22;;;;;;;3.10;2.33;;;30.20;34.80;;;;;;5070071;28;20450;-80
2022/05/14 10:34:58;;;;;;;6.37;2.20;;;30.20;34.70;;;;;;5072420;28;20814;-80
2022/05/14 10:37:35;;;;;;;7.00;2.70;;;30.20;34.80;;;;;;5071292;28;20518;-80
2022/05/14 10:40:08;;;;;;;7.53;2.47;;;29.90;35.10;;;;;;5071768;28;20534;-81
2022/05/14 10:42:41;;;;;;;7.47;3.20;;;29.70;35.20;;;;;;5069813;28;20450;-81
2022/05/14 10:45:12;;;;;;;9.80;3.00;;;29.60;35.40;;;;;;5071275;28;20469;-81
2022/05/14 10:47:44;;;;;;;10.33;3.13;;;29.50;35.30;;;;;;5088432;28;20434;-81
2022/05/14 10:50:15;;;;;;;7.73;3.13;;;29.70;35.40;;;;;;5077116;28;20473;-81
2022/05/14 10:52:45;;;;;;;5.70;2.67;;;29.80;34.60;;;;;;5071379;28;20439;-80
2022/05/14 10:55:17;;;;;;;7.47;2.83;;;29.90;34.70;;;;;;5071818;28;20482;-80
2022/05/14 10:57:48;;;;;;;8.97;3.63;;;29.90;34.00;;;;;;5071738;28;20438;-80
2022/05/14 11:00:20;;;;;;;14.93;3.10;;;29.80;33.70;;;;;;5071577;28;20471;-80
2022/05/14 11:02:56;;;;;;;9.37;3.10;;;29.80;33.40;;;;;;5071596;28;20455;-79
2022/05/14 11:05:29;;;;;;;14.50;3.37;;;29.70;33.00;;;;;;5059903;28;20442;-79
2022/05/14 11:08:09;;;;;;;8.90;3.23;;;29.50;33.10;;;;;;5051522;28;20443;-80
2022/05/14 11:10:39;;;;;;;11.07;2.77;;;29.40;33.10;;;;;;5051682;28;20501;-80
2022/05/14 11:13:19;;;;;;;11.83;3.30;;;29.30;33.10;;;;;;5050723;28;20611;-80
2022/05/14 11:15:47;;;;;;;13.17;4.20;;;29.60;33.50;;;;;;5051075;28;20456;-80
2022/05/14 11:18:16;;;;;;;12.97;3.77;;;29.50;32.60;;;;;;5051731;28;20458;-80
2022/05/14 11:20:55;;;;;;;10.30;3.47;;;29.60;32.50;;;;;;5051319;28;20455;-79
2022/05/14 11:23:24;;;;;;;9.47;3.13;;;29.40;32.50;;;;;;5066335;28;20415;-80
2022/05/14 11:26:04;;;;;;;9.47;3.20;;;29.30;32.50;;;;;;5052334;28;20439;-80
2022/05/14 11:28:32;;;;;;;14.40;3.70;;;29.40;32.40;;;;;;5041975;28;20486;-78
2022/05/14 11:31:12;;;;;;;8.60;3.40;;;29.40;32.10;;;;;;5049985;28;20468;-79
2022/05/14 11:33:40;;;;;;;11.27;3.67;;;29.40;32.70;;;;;;5051941;28;20443;-79
2022/05/14 11:36:19;;;;;;;6.33;2.93;;;29.40;32.20;;;;;;5050598;28;20448;-79
2022/05/14 11:39:06;;;;;;;11.00;4.20;;;29.40;32.20;;;;;;5068712;28;20439;-80
2022/05/14 11:41:36;;;;;;;12.77;5.30;;;29.20;32.20;;;;;;5051748;28;20482;-79
2022/05/14 11:44:06;;;;;;;19.70;9.43;;;29.30;32.30;;;;;;5050866;28;20478;-79
2022/05/14 11:46:40;;;;;;;19.93;11.03;;;29.20;32.30;;;;;;5051192;28;20511;-79
2022/05/14 11:49:11;;;;;;;15.37;9.63;;;29.20;32.50;;;;;;5050944;28;20447;-79
2022/05/14 11:51:43;;;;;;;19.97;8.73;;;29.30;32.60;;;;;;5044901;28;20809;-80
2022/05/14 11:54:23;;;;;;;23.27;8.80;;;29.20;33.10;;;;;;5044097;28;20553;-83
2022/05/14 11:56:54;;;;;;;17.43;7.97;;;29.50;33.00;;;;;;5060747;28;20504;-82
2022/05/14 11:59:40;;;;;;;17.50;8.20;;;29.40;33.20;;;;;;5058325;28;21061;-81
2022/05/14 12:02:13;;;;;;;12.10;5.83;;;29.10;33.50;;;;;;5053025;28;20479;-82
2022/05/14 12:04:43;;;;;;;14.67;6.33;;;29.00;33.60;;;;;;5047129;28;20443;-82
2022/05/14 12:07:22;;;;;;;13.33;5.23;;;29.00;33.20;;;;;;5045745;28;20481;-83
2022/05/14 12:10:04;;;;;;;13.57;3.97;;;29.10;32.50;;;;;;5055634;28;20474;-82
2022/05/14 12:12:35;;;;;;;11.03;4.40;;;29.20;31.20;;;;;;5056085;28;20449;-83
2022/05/14 12:15:07;;;;;;;12.53;3.70;;;29.20;30.90;;;;;;5055833;28;20478;-84
2022/05/14 12:17:37;;;;;;;14.67;3.97;;;29.50;30.00;;;;;;5056460;28;20477;-83
2022/05/14 12:20:07;;;;;;;10.30;4.13;;;29.10;31.30;;;;;;5056454;28;20557;-83
2022/05/14 12:22:36;;;;;;;15.30;4.10;;;29.10;31.40;;;;;;5054053;28;20423;-84
2022/05/14 12:25:22;;;;;;;14.03;3.63;;;28.90;30.70;;;;;;5041504;28;20470;-84
2022/05/14 12:27:56;;;;;;;12.57;4.03;;;28.60;30.60;;;;;;5057143;28;20435;-83
2022/05/14 12:33:12;;;;;;;8.83;3.40;;;28.10;31.90;;;;;;5054003;28;20449;-87
2022/05/14 12:35:42;;;;;;;11.27;3.70;;;27.80;32.00;;;;;;5056557;28;20553;-83
2022/05/14 12:38:12;;;;;;;9.87;4.00;;;29.00;30.90;;;;;;5056201;28;20431;-82
2022/05/14 12:41:03;;;;;;;11.60;3.77;;;29.20;30.00;;;;;;5056171;28;20471;-83
2022/05/14 12:43:31;;;;;;;17.40;4.37;;;28.70;30.10;;;;;;5032204;28;20443;-80
2022/05/14 12:46:04;;;;;;;11.00;4.13;;;28.60;30.40;;;;;;5037116;28;20474;-81
2022/05/14 12:48:32;;;;;;;20.90;4.07;;;29.00;30.70;;;;;;5041883;28;20470;-81
2022/05/14 12:51:01;;;;;;;9.07;3.10;;;28.70;30.00;;;;;;5042696;28;20480;-81
2022/05/14 12:53:36;;;;;;;8.10;3.47;;;28.40;30.60;;;;;;5059172;28;20484;-80
2022/05/14 12:56:07;;;;;;;9.23;3.40;;;28.00;31.60;;;;;;5060504;28;20481;-82
2022/05/14 12:58:36;;;;;;;11.40;3.30;;;28.00;31.20;;;;;;5062135;28;20929;-82
2022/05/14 13:01:05;;;;;;;10.67;3.73;;;28.00;32.80;;;;;;5055254;28;20498;-81
2022/05/14 13:03:34;;;;;;;13.10;4.13;;;28.90;30.60;;;;;;5056431;28;20430;-81
2022/05/14 13:06:06;;;;;;;8.70;3.30;;;30.30;29.10;;;;;;5060137;28;20450;-83
2022/05/14 13:08:34;;;;;;;15.63;4.63;;;29.80;28.50;;;;;;5041262;28;20447;-82
2022/05/14 13:11:03;;;;;;;11.90;3.20;;;29.60;28.60;;;;;;5041358;28;20483;-81
2022/05/14 13:13:38;;;;;;;14.60;3.70;;;29.10;29.00;;;;;;5039234;28;20489;-82
2022/05/14 13:16:12;;;;;;;15.93;4.23;;;28.70;29.70;;;;;;5040112;28;20503;-82
2022/05/14 13:18:43;;;;;;;11.37;3.37;;;28.90;29.60;;;;;;5039763;28;20443;-82
2022/05/14 13:21:20;;;;;;;10.63;3.73;;;29.30;29.90;;;;;;5046581;28;20488;-83
2022/05/14 13:23:57;;;;;;;10.23;3.23;;;29.30;28.90;;;;;;5059235;28;20446;-82
2022/05/14 13:26:35;;;;;;;8.30;2.77;;;29.00;29.20;;;;;;5058570;28;20445;-82